Saint Paul, MN

16:23 CST le 29 janvier 2015 (GMT -0600)
Mounds Park, East Metro | Change Station
CLOSE
Current Station
Stations météorologiques personnelles
Location: Saint Paul, MN
Altitude: 850 ft
Stations météo à proximité

Alt. 850 ft 44.95 °N, 93.06 °W | Updated 3 minutes ago

Mostly Cloudy
Nuageux
26.7 ° F
Paraît 27 ° F
N
3.0
Vent Variable Vent de NNO
Gusts 19.0 mph

Aujourd'hui
Haut(e) -- | Bas -- ° F
--% Risque de précip.
Hier
Haut(e) -- | Bas -- ° F
Precip. -- pouce
7:35 AM 5:15 PM
Lune gibbeuse croissante, 77% visible
Pression 30.35 pouce
Visibilité 10.0 Miles terrestres
Nuages Nuageux 3400 ft
Refroidissement éolien 27 ° F
Point de rosée 12 ° F
Humidité 53%
Précipitations -999.00 pouce
Profondeur de la couche neigeuse Non disponible.
UV 0 sur 12
Pollen .10 sur 12
Qualité de l'air Non disponible.
Flu Activity Non disponible.
METAR KSTP 292153Z 33014G26KT 10SM BKN034 M02/M09 A3033 RMK AO2 PK WND 31028/2135 SLP276 T10221094

More Conditions Fewer Conditions

Pression 30.35 pouce
Visibilité 10.0 Miles terrestres
Nuages Nuageux 3400 ft
Refroidissement éolien 27 ° F
Point de rosée 12 ° F
Humidité 53%
Précipitations -999.00 pouce
Profondeur de la couche neigeuse Non disponible.
UV 0 sur 12
Pollen .10 sur 12
Qualité de l'air Non disponible.
Flu Activity Non disponible.
METAR KSTP 292153Z 33014G26KT 10SM BKN034 M02/M09 A3033 RMK AO2 PK WND 31028/2135 SLP276 T10221094

More Conditions Fewer Conditions

10-Day Weather Forecast

Almanac

Astronomie

Jan. 29, 2015 Lever Coucher
Temps réel
Crépuscule civil
Crépuscule nautique
Crépuscule astronomique
Lune
Durée de lumière visible
Longueur du jour
Tomorrow will be .
, % of the Moon is Illuminated

Extrêmes aujourd'hui

State Highs State Lows

Community

WunderPhotos

Upload Photos

1,791,629 Photos téléchargées !

WunderBlogs® & News

Nearby

Qualité de l'air

  Qualité de l'air Indice de la qualité de l'air Polluant
Not available.

Épaisseur de neige

Station Depth Altitude

Activité sismique

Ville Distance Mag. Time & Date
Minimum magnitude displayed is 2.5.

Températures des eaux côtières

Lieu Température

Stations météo à proximité